sensor_id;sensor_type;location;lat;lon;timestamp;temperature;humidity
6666;DHT22;3369;49.906;8.598;2023-03-08T00:02:00;4.10;99.90
6666;DHT22;3369;49.906;8.598;2023-03-08T00:04:26;4.10;99.90
6666;DHT22;3369;49.906;8.598;2023-03-08T00:06:52;4.10;99.90
6666;DHT22;3369;49.906;8.598;2023-03-08T00:09:47;4.10;99.90
6666;DHT22;3369;49.906;8.598;2023-03-08T00:12:16;4.20;99.90
6666;DHT22;3369;49.906;8.598;2023-03-08T00:14:50;4.10;99.90
6666;DHT22;3369;49.906;8.598;2023-03-08T00:23:45;4.10;99.90
6666;DHT22;3369;49.906;8.598;2023-03-08T00:29:17;4.00;99.90
6666;DHT22;3369;49.906;8.598;2023-03-08T00:31:43;4.00;99.90
6666;DHT22;3369;49.906;8.598;2023-03-08T00:34:12;4.00;99.90
6666;DHT22;3369;49.906;8.598;2023-03-08T00:36:45;3.90;99.90
6666;DHT22;3369;49.906;8.598;2023-03-08T00:39:11;3.90;99.90
6666;DHT22;3369;49.906;8.598;2023-03-08T00:41:46;3.90;99.90
6666;DHT22;3369;49.906;8.598;2023-03-08T00:44:12;3.90;99.90
6666;DHT22;3369;49.906;8.598;2023-03-08T00:46:37;3.90;99.90
6666;DHT22;3369;49.906;8.598;2023-03-08T00:49:03;3.90;99.90
6666;DHT22;3369;49.906;8.598;2023-03-08T00:51:29;4.00;99.90
6666;DHT22;3369;49.906;8.598;2023-03-08T00:53:55;3.90;99.90
6666;DHT22;3369;49.906;8.598;2023-03-08T00:56:21;4.00;99.90
6666;DHT22;3369;49.906;8.598;2023-03-08T00:58:46;4.00;99.90
6666;DHT22;3369;49.906;8.598;2023-03-08T01:01:16;4.00;99.90
6666;DHT22;3369;49.906;8.598;2023-03-08T01:03:50;4.10;99.90
6666;DHT22;3369;49.906;8.598;2023-03-08T01:06:18;4.10;99.90
6666;DHT22;3369;49.906;8.598;2023-03-08T01:29:25;4.00;99.90
6666;DHT22;3369;49.906;8.598;2023-03-08T01:31:54;4.00;99.90
6666;DHT22;3369;49.906;8.598;2023-03-08T01:34:38;4.00;99.90
6666;DHT22;3369;49.906;8.598;2023-03-08T01:37:09;3.90;99.90
6666;DHT22;3369;49.906;8.598;2023-03-08T01:39:38;3.90;99.90
6666;DHT22;3369;49.906;8.598;2023-03-08T01:42:04;3.90;99.90
6666;DHT22;3369;49.906;8.598;2023-03-08T01:45:02;4.00;99.90
6666;DHT22;3369;49.906;8.598;2023-03-08T01:47:30;3.90;99.90
6666;DHT22;3369;49.906;8.598;2023-03-08T01:50:12;3.90;99.90
6666;DHT22;3369;49.906;8.598;2023-03-08T01:55:53;3.90;99.90
6666;DHT22;3369;49.906;8.598;2023-03-08T01:58:54;3.90;99.90
6666;DHT22;3369;49.906;8.598;2023-03-08T02:01:19;3.80;99.90
6666;DHT22;3369;49.906;8.598;2023-03-08T02:03:51;3.80;99.90
6666;DHT22;3369;49.906;8.598;2023-03-08T02:06:18;3.80;99.90
6666;DHT22;3369;49.906;8.598;2023-03-08T02:09:39;3.80;99.90
6666;DHT22;3369;49.906;8.598;2023-03-08T02:12:12;3.80;99.90
6666;DHT22;3369;49.906;8.598;2023-03-08T02:14:41;3.70;99.90
6666;DHT22;3369;49.906;8.598;2023-03-08T02:17:16;3.70;99.90
6666;DHT22;3369;49.906;8.598;2023-03-08T02:20:20;3.70;99.90
6666;DHT22;3369;49.906;8.598;2023-03-08T02:23:36;3.60;99.90
6666;DHT22;3369;49.906;8.598;2023-03-08T02:26:05;3.60;99.90
6666;DHT22;3369;49.906;8.598;2023-03-08T02:28:42;3.60;99.90
6666;DHT22;3369;49.906;8.598;2023-03-08T02:31:11;3.50;99.90
6666;DHT22;3369;49.906;8.598;2023-03-08T02:33:37;3.50;99.90
6666;DHT22;3369;49.906;8.598;2023-03-08T02:36:07;3.50;99.90
6666;DHT22;3369;49.906;8.598;2023-03-08T02:38:34;3.50;99.90
6666;DHT22;3369;49.906;8.598;2023-03-08T02:41:00;3.50;99.90
6666;DHT22;3369;49.906;8.598;2023-03-08T02:43:35;3.60;99.90
6666;DHT22;3369;49.906;8.598;2023-03-08T02:46:13;3.60;99.90
6666;DHT22;3369;49.906;8.598;2023-03-08T02:48:39;3.70;99.90
6666;DHT22;3369;49.906;8.598;2023-03-08T02:51:05;3.70;99.90
6666;DHT22;3369;49.906;8.598;2023-03-08T02:53:53;3.70;99.90
6666;DHT22;3369;49.906;8.598;2023-03-08T02:56:22;3.70;99.90
6666;DHT22;3369;49.906;8.598;2023-03-08T02:59:09;3.70;99.90
6666;DHT22;3369;49.906;8.598;2023-03-08T03:08:14;4.00;99.90
6666;DHT22;3369;49.906;8.598;2023-03-08T03:10:43;4.00;99.90
6666;DHT22;3369;49.906;8.598;2023-03-08T03:13:09;4.10;99.90
6666;DHT22;3369;49.906;8.598;2023-03-08T03:15:46;4.20;99.90
6666;DHT22;3369;49.906;8.598;2023-03-08T03:18:21;4.20;99.90
6666;DHT22;3369;49.906;8.598;2023-03-08T03:21:18;4.30;99.90
6666;DHT22;3369;49.906;8.598;2023-03-08T03:23:47;4.30;99.90
6666;DHT22;3369;49.906;8.598;2023-03-08T03:26:17;4.30;99.90
6666;DHT22;3369;49.906;8.598;2023-03-08T03:28:44;4.30;99.90
6666;DHT22;3369;49.906;8.598;2023-03-08T03:31:14;4.30;99.90
6666;DHT22;3369;49.906;8.598;2023-03-08T03:33:43;4.30;99.90
6666;DHT22;3369;49.906;8.598;2023-03-08T03:36:29;4.40;99.90
6666;DHT22;3369;49.906;8.598;2023-03-08T03:38:55;4.40;99.90
6666;DHT22;3369;49.906;8.598;2023-03-08T03:41:41;4.40;99.90
6666;DHT22;3369;49.906;8.598;2023-03-08T03:44:07;4.40;99.90
6666;DHT22;3369;49.906;8.598;2023-03-08T03:46:48;4.40;99.90
6666;DHT22;3369;49.906;8.598;2023-03-08T03:49:27;4.40;99.90
6666;DHT22;3369;49.906;8.598;2023-03-08T03:56:14;4.40;99.80
6666;DHT22;3369;49.906;8.598;2023-03-08T03:58:49;4.40;99.80
6666;DHT22;3369;49.906;8.598;2023-03-08T04:01:22;4.40;99.60
6666;DHT22;3369;49.906;8.598;2023-03-08T04:07:18;4.40;99.70
6666;DHT22;3369;49.906;8.598;2023-03-08T04:09:44;4.40;99.60
6666;DHT22;3369;49.906;8.598;2023-03-08T04:12:18;4.40;99.70
6666;DHT22;3369;49.906;8.598;2023-03-08T04:14:55;4.40;99.50
6666;DHT22;3369;49.906;8.598;2023-03-08T04:17:21;4.40;99.70
6666;DHT22;3369;49.906;8.598;2023-03-08T04:20:27;4.40;99.50
6666;DHT22;3369;49.906;8.598;2023-03-08T04:22:55;4.40;99.60
6666;DHT22;3369;49.906;8.598;2023-03-08T04:25:21;4.40;99.70
6666;DHT22;3369;49.906;8.598;2023-03-08T04:27:57;4.40;99.70
6666;DHT22;3369;49.906;8.598;2023-03-08T04:30:30;4.40;99.50
6666;DHT22;3369;49.906;8.598;2023-03-08T04:32:56;4.40;99.50
6666;DHT22;3369;49.906;8.598;2023-03-08T04:35:22;4.40;99.60
6666;DHT22;3369;49.906;8.598;2023-03-08T04:37:53;4.40;99.40
6666;DHT22;3369;49.906;8.598;2023-03-08T04:40:19;4.40;99.80
6666;DHT22;3369;49.906;8.598;2023-03-08T04:43:07;4.40;99.50
6666;DHT22;3369;49.906;8.598;2023-03-08T04:46:12;4.40;99.60
6666;DHT22;3369;49.906;8.598;2023-03-08T04:48:58;4.40;99.70
6666;DHT22;3369;49.906;8.598;2023-03-08T04:51:35;4.40;99.60
6666;DHT22;3369;49.906;8.598;2023-03-08T04:54:07;4.40;99.60
6666;DHT22;3369;49.906;8.598;2023-03-08T04:56:46;4.40;99.70
6666;DHT22;3369;49.906;8.598;2023-03-08T04:59:22;4.40;99.80
6666;DHT22;3369;49.906;8.598;2023-03-08T05:02:20;4.40;99.90
6666;DHT22;3369;49.906;8.598;2023-03-08T05:04:46;4.40;99.90
6666;DHT22;3369;49.906;8.598;2023-03-08T05:07:11;4.40;99.90
6666;DHT22;3369;49.906;8.598;2023-03-08T05:09:48;4.40;99.90
6666;DHT22;3369;49.906;8.598;2023-03-08T05:15:59;4.40;99.90
6666;DHT22;3369;49.906;8.598;2023-03-08T05:18:34;4.40;99.90
6666;DHT22;3369;49.906;8.598;2023-03-08T05:21:03;4.40;99.90
6666;DHT22;3369;49.906;8.598;2023-03-08T05:23:32;4.40;99.90
6666;DHT22;3369;49.906;8.598;2023-03-08T05:26:18;4.40;99.90
6666;DHT22;3369;49.906;8.598;2023-03-08T05:28:44;4.40;99.90
6666;DHT22;3369;49.906;8.598;2023-03-08T05:31:18;4.40;99.90
6666;DHT22;3369;49.906;8.598;2023-03-08T05:33:51;4.40;99.90
6666;DHT22;3369;49.906;8.598;2023-03-08T05:36:19;4.40;99.90
6666;DHT22;3369;49.906;8.598;2023-03-08T05:38:45;4.40;99.90
6666;DHT22;3369;49.906;8.598;2023-03-08T05:41:13;4.40;99.90
6666;DHT22;3369;49.906;8.598;2023-03-08T05:43:42;4.40;99.90
6666;DHT22;3369;49.906;8.598;2023-03-08T05:46:15;4.40;99.90
6666;DHT22;3369;49.906;8.598;2023-03-08T05:48:47;4.30;99.90
6666;DHT22;3369;49.906;8.598;2023-03-08T05:51:21;4.30;99.90
6666;DHT22;3369;49.906;8.598;2023-03-08T05:53:49;4.30;99.90
6666;DHT22;3369;49.906;8.598;2023-03-08T05:56:17;4.30;99.90
6666;DHT22;3369;49.906;8.598;2023-03-08T05:58:44;4.30;99.90
6666;DHT22;3369;49.906;8.598;2023-03-08T06:01:40;4.30;99.90
6666;DHT22;3369;49.906;8.598;2023-03-08T06:04:17;4.20;99.90
6666;DHT22;3369;49.906;8.598;2023-03-08T06:06:45;4.20;99.90
6666;DHT22;3369;49.906;8.598;2023-03-08T06:09:26;4.10;99.90
6666;DHT22;3369;49.906;8.598;2023-03-08T06:15:04;3.90;99.90
6666;DHT22;3369;49.906;8.598;2023-03-08T06:17:30;3.80;99.90
6666;DHT22;3369;49.906;8.598;2023-03-08T06:23:22;3.60;99.90
6666;DHT22;3369;49.906;8.598;2023-03-08T06:25:51;3.50;99.90
6666;DHT22;3369;49.906;8.598;2023-03-08T06:28:17;3.40;99.90
6666;DHT22;3369;49.906;8.598;2023-03-08T06:30:47;3.40;99.90
6666;DHT22;3369;49.906;8.598;2023-03-08T06:36:28;3.20;99.90
6666;DHT22;3369;49.906;8.598;2023-03-08T06:38:54;3.20;99.90
6666;DHT22;3369;49.906;8.598;2023-03-08T06:41:24;3.20;99.90
6666;DHT22;3369;49.906;8.598;2023-03-08T06:43:56;3.20;99.90
6666;DHT22;3369;49.906;8.598;2023-03-08T06:46:22;3.20;99.90
6666;DHT22;3369;49.906;8.598;2023-03-08T06:48:48;3.20;99.90
6666;DHT22;3369;49.906;8.598;2023-03-08T07:12:51;3.30;99.90
6666;DHT22;3369;49.906;8.598;2023-03-08T07:15:19;3.30;99.90
6666;DHT22;3369;49.906;8.598;2023-03-08T07:17:48;3.40;99.90
6666;DHT22;3369;49.906;8.598;2023-03-08T07:20:17;3.40;99.90
6666;DHT22;3369;49.906;8.598;2023-03-08T07:22:44;3.50;99.90
6666;DHT22;3369;49.906;8.598;2023-03-08T07:25:13;3.50;99.90
6666;DHT22;3369;49.906;8.598;2023-03-08T07:27:40;3.50;99.90
6666;DHT22;3369;49.906;8.598;2023-03-08T07:30:15;3.50;99.90
6666;DHT22;3369;49.906;8.598;2023-03-08T07:32:59;3.50;99.90
6666;DHT22;3369;49.906;8.598;2023-03-08T07:35:26;3.50;99.90
6666;DHT22;3369;49.906;8.598;2023-03-08T07:37:55;3.50;99.90
6666;DHT22;3369;49.906;8.598;2023-03-08T07:42:58;3.50;99.90
6666;DHT22;3369;49.906;8.598;2023-03-08T07:45:25;3.50;99.90
6666;DHT22;3369;49.906;8.598;2023-03-08T07:47:51;3.40;99.90
6666;DHT22;3369;49.906;8.598;2023-03-08T07:50:37;3.30;99.90
6666;DHT22;3369;49.906;8.598;2023-03-08T07:53:03;3.20;99.90
6666;DHT22;3369;49.906;8.598;2023-03-08T07:55:29;3.10;99.90
6666;DHT22;3369;49.906;8.598;2023-03-08T07:57:55;3.00;99.90
6666;DHT22;3369;49.906;8.598;2023-03-08T08:00:20;2.90;99.90
6666;DHT22;3369;49.906;8.598;2023-03-08T08:02:46;2.80;99.90
6666;DHT22;3369;49.906;8.598;2023-03-08T08:05:13;2.80;99.90
6666;DHT22;3369;49.906;8.598;2023-03-08T08:07:39;2.70;99.90
6666;DHT22;3369;49.906;8.598;2023-03-08T08:10:05;2.70;99.90
6666;DHT22;3369;49.906;8.598;2023-03-08T08:12:32;2.60;99.90
6666;DHT22;3369;49.906;8.598;2023-03-08T08:14:58;2.60;99.90
6666;DHT22;3369;49.906;8.598;2023-03-08T08:17:24;2.60;99.90
6666;DHT22;3369;49.906;8.598;2023-03-08T08:19:50;2.60;99.90
6666;DHT22;3369;49.906;8.598;2023-03-08T08:22:15;2.50;99.90
6666;DHT22;3369;49.906;8.598;2023-03-08T08:24:41;2.50;99.90
6666;DHT22;3369;49.906;8.598;2023-03-08T08:27:07;2.50;99.90
6666;DHT22;3369;49.906;8.598;2023-03-08T08:29:33;2.40;99.90
6666;DHT22;3369;49.906;8.598;2023-03-08T08:31:59;2.40;99.90
6666;DHT22;3369;49.906;8.598;2023-03-08T08:34:24;2.40;99.90
6666;DHT22;3369;49.906;8.598;2023-03-08T08:36:50;2.40;99.90
6666;DHT22;3369;49.906;8.598;2023-03-08T08:39:16;2.40;99.90
6666;DHT22;3369;49.906;8.598;2023-03-08T08:41:42;2.50;99.90
6666;DHT22;3369;49.906;8.598;2023-03-08T08:44:08;2.50;99.90
6666;DHT22;3369;49.906;8.598;2023-03-08T08:46:33;2.50;99.90
6666;DHT22;3369;49.906;8.598;2023-03-08T08:49:01;2.50;99.90
6666;DHT22;3369;49.906;8.598;2023-03-08T08:51:37;2.40;99.90
6666;DHT22;3369;49.906;8.598;2023-03-08T08:54:03;2.40;99.90
6666;DHT22;3369;49.906;8.598;2023-03-08T08:56:29;2.40;99.90
6666;DHT22;3369;49.906;8.598;2023-03-08T08:58:56;2.40;99.90
6666;DHT22;3369;49.906;8.598;2023-03-08T09:01:24;2.40;99.90
6666;DHT22;3369;49.906;8.598;2023-03-08T09:03:50;2.40;99.90
6666;DHT22;3369;49.906;8.598;2023-03-08T09:06:18;2.40;99.90
6666;DHT22;3369;49.906;8.598;2023-03-08T09:08:50;2.40;99.90
6666;DHT22;3369;49.906;8.598;2023-03-08T09:11:16;2.30;99.90
6666;DHT22;3369;49.906;8.598;2023-03-08T09:13:42;2.30;99.90
6666;DHT22;3369;49.906;8.598;2023-03-08T09:16:26;2.30;99.90
6666;DHT22;3369;49.906;8.598;2023-03-08T09:18:52;2.40;99.90
6666;DHT22;3369;49.906;8.598;2023-03-08T09:21:18;2.40;99.90
6666;DHT22;3369;49.906;8.598;2023-03-08T09:23:44;2.40;99.90
6666;DHT22;3369;49.906;8.598;2023-03-08T09:26:10;2.50;99.90
6666;DHT22;3369;49.906;8.598;2023-03-08T09:28:36;2.50;99.90
6666;DHT22;3369;49.906;8.598;2023-03-08T09:31:11;2.60;99.90
6666;DHT22;3369;49.906;8.598;2023-03-08T09:33:46;2.50;99.90
6666;DHT22;3369;49.906;8.598;2023-03-08T09:36:13;2.60;99.90
6666;DHT22;3369;49.906;8.598;2023-03-08T09:38:39;2.60;99.90
6666;DHT22;3369;49.906;8.598;2023-03-08T09:44:03;2.60;99.90
6666;DHT22;3369;49.906;8.598;2023-03-08T09:46:39;2.60;99.90
6666;DHT22;3369;49.906;8.598;2023-03-08T09:49:30;2.70;99.90
6666;DHT22;3369;49.906;8.598;2023-03-08T09:52:24;2.70;99.90
6666;DHT22;3369;49.906;8.598;2023-03-08T09:54:51;2.70;99.90
6666;DHT22;3369;49.906;8.598;2023-03-08T09:57:23;2.70;99.90
6666;DHT22;3369;49.906;8.598;2023-03-08T09:59:57;2.70;99.90
6666;DHT22;3369;49.906;8.598;2023-03-08T10:03:16;2.70;99.90
6666;DHT22;3369;49.906;8.598;2023-03-08T10:05:24;2.70;99.90
6666;DHT22;3369;49.906;8.598;2023-03-08T10:08:15;2.70;99.90
6666;DHT22;3369;49.906;8.598;2023-03-08T10:10:58;2.80;99.90
6666;DHT22;3369;49.906;8.598;2023-03-08T10:16:10;2.90;99.90
6666;DHT22;3369;49.906;8.598;2023-03-08T10:18:45;2.90;99.90
6666;DHT22;3369;49.906;8.598;2023-03-08T10:21:16;3.00;99.90
6666;DHT22;3369;49.906;8.598;2023-03-08T10:23:45;3.00;99.90
6666;DHT22;3369;49.906;8.598;2023-03-08T10:26:13;3.10;99.90
6666;DHT22;3369;49.906;8.598;2023-03-08T10:28:39;3.20;99.90
6666;DHT22;3369;49.906;8.598;2023-03-08T10:31:29;3.20;99.90
6666;DHT22;3369;49.906;8.598;2023-03-08T10:36:24;3.30;99.90
6666;DHT22;3369;49.906;8.598;2023-03-08T10:39:07;3.30;99.90
6666;DHT22;3369;49.906;8.598;2023-03-08T10:41:41;3.30;99.90
6666;DHT22;3369;49.906;8.598;2023-03-08T10:44:13;3.30;99.90
6666;DHT22;3369;49.906;8.598;2023-03-08T10:46:47;3.30;99.90
6666;DHT22;3369;49.906;8.598;2023-03-08T10:49:16;3.30;99.90
6666;DHT22;3369;49.906;8.598;2023-03-08T10:51:55;3.30;99.90
6666;DHT22;3369;49.906;8.598;2023-03-08T10:54:21;3.30;99.90
6666;DHT22;3369;49.906;8.598;2023-03-08T10:56:58;3.30;99.90
6666;DHT22;3369;49.906;8.598;2023-03-08T10:59:32;3.30;99.90
6666;DHT22;3369;49.906;8.598;2023-03-08T11:04:53;3.20;99.90
6666;DHT22;3369;49.906;8.598;2023-03-08T11:07:24;3.20;99.90
6666;DHT22;3369;49.906;8.598;2023-03-08T11:09:51;3.20;99.90
6666;DHT22;3369;49.906;8.598;2023-03-08T11:12:24;3.20;99.90
6666;DHT22;3369;49.906;8.598;2023-03-08T11:14:51;3.20;99.90
6666;DHT22;3369;49.906;8.598;2023-03-08T11:20:09;3.20;99.90
6666;DHT22;3369;49.906;8.598;2023-03-08T11:28:18;3.40;99.90
6666;DHT22;3369;49.906;8.598;2023-03-08T11:36:43;3.50;99.90
6666;DHT22;3369;49.906;8.598;2023-03-08T11:39:36;3.50;99.90
6666;DHT22;3369;49.906;8.598;2023-03-08T11:50:15;3.60;99.90
6666;DHT22;3369;49.906;8.598;2023-03-08T11:53:04;3.60;99.90
6666;DHT22;3369;49.906;8.598;2023-03-08T12:00:55;3.70;99.90
6666;DHT22;3369;49.906;8.598;2023-03-08T12:03:38;3.70;99.90
6666;DHT22;3369;49.906;8.598;2023-03-08T12:06:11;3.80;99.90
6666;DHT22;3369;49.906;8.598;2023-03-08T12:08:48;3.80;99.90
6666;DHT22;3369;49.906;8.598;2023-03-08T12:11:27;3.80;99.90
6666;DHT22;3369;49.906;8.598;2023-03-08T12:14:22;3.80;99.90
6666;DHT22;3369;49.906;8.598;2023-03-08T12:19:43;3.90;99.90
6666;DHT22;3369;49.906;8.598;2023-03-08T12:22:36;3.90;99.90
6666;DHT22;3369;49.906;8.598;2023-03-08T12:28:10;4.00;99.90
6666;DHT22;3369;49.906;8.598;2023-03-08T12:33:21;4.00;99.90
6666;DHT22;3369;49.906;8.598;2023-03-08T12:40:50;4.10;99.90
6666;DHT22;3369;49.906;8.598;2023-03-08T12:46:06;4.20;99.90
6666;DHT22;3369;49.906;8.598;2023-03-08T12:58:54;4.30;99.90
6666;DHT22;3369;49.906;8.598;2023-03-08T13:01:41;4.30;99.90
6666;DHT22;3369;49.906;8.598;2023-03-08T13:04:33;4.40;99.90
6666;DHT22;3369;49.906;8.598;2023-03-08T13:29:52;4.60;99.90
6666;DHT22;3369;49.906;8.598;2023-03-08T13:32:20;4.60;99.90
6666;DHT22;3369;49.906;8.598;2023-03-08T13:34:59;4.60;99.90
6666;DHT22;3369;49.906;8.598;2023-03-08T13:37:27;4.70;99.90
6666;DHT22;3369;49.906;8.598;2023-03-08T13:39:56;4.70;99.90
6666;DHT22;3369;49.906;8.598;2023-03-08T13:42:24;4.80;99.90
6666;DHT22;3369;49.906;8.598;2023-03-08T13:44:52;4.80;99.90
6666;DHT22;3369;49.906;8.598;2023-03-08T13:47:26;4.80;99.90
6666;DHT22;3369;49.906;8.598;2023-03-08T13:49:58;4.90;99.90
6666;DHT22;3369;49.906;8.598;2023-03-08T13:52:29;4.90;99.90
6666;DHT22;3369;49.906;8.598;2023-03-08T13:54:58;4.90;99.90
6666;DHT22;3369;49.906;8.598;2023-03-08T13:57:31;5.00;99.90
6666;DHT22;3369;49.906;8.598;2023-03-08T14:00:00;5.00;99.90
6666;DHT22;3369;49.906;8.598;2023-03-08T14:02:29;5.10;99.90
6666;DHT22;3369;49.906;8.598;2023-03-08T14:04:56;5.10;99.90
6666;DHT22;3369;49.906;8.598;2023-03-08T14:07:27;5.10;99.90
6666;DHT22;3369;49.906;8.598;2023-03-08T14:09:54;5.10;99.90
6666;DHT22;3369;49.906;8.598;2023-03-08T14:12:23;5.20;99.90
6666;DHT22;3369;49.906;8.598;2023-03-08T14:14:55;5.20;99.90
6666;DHT22;3369;49.906;8.598;2023-03-08T14:17:24;5.20;99.90
6666;DHT22;3369;49.906;8.598;2023-03-08T14:19:53;5.30;99.90
6666;DHT22;3369;49.906;8.598;2023-03-08T14:22:21;5.30;99.90
6666;DHT22;3369;49.906;8.598;2023-03-08T14:24:53;5.40;99.90
6666;DHT22;3369;49.906;8.598;2023-03-08T14:29:46;5.50;99.90
6666;DHT22;3369;49.906;8.598;2023-03-08T14:34:38;5.60;99.90
6666;DHT22;3369;49.906;8.598;2023-03-08T14:39:38;5.70;99.90
6666;DHT22;3369;49.906;8.598;2023-03-08T14:42:22;5.70;99.90
6666;DHT22;3369;49.906;8.598;2023-03-08T14:44:54;5.80;99.90
6666;DHT22;3369;49.906;8.598;2023-03-08T14:47:30;5.80;99.90
6666;DHT22;3369;49.906;8.598;2023-03-08T14:52:27;5.90;99.90
6666;DHT22;3369;49.906;8.598;2023-03-08T14:54:53;6.00;99.90
6666;DHT22;3369;49.906;8.598;2023-03-08T14:57:22;6.00;99.90
6666;DHT22;3369;49.906;8.598;2023-03-08T14:59:49;6.10;99.90
6666;DHT22;3369;49.906;8.598;2023-03-08T15:02:16;6.20;99.90
6666;DHT22;3369;49.906;8.598;2023-03-08T15:04:43;6.20;99.90
6666;DHT22;3369;49.906;8.598;2023-03-08T15:07:30;6.30;99.90
6666;DHT22;3369;49.906;8.598;2023-03-08T15:09:57;6.30;99.90
6666;DHT22;3369;49.906;8.598;2023-03-08T15:12:24;6.30;99.90
6666;DHT22;3369;49.906;8.598;2023-03-08T15:14:50;6.40;99.90
6666;DHT22;3369;49.906;8.598;2023-03-08T15:17:16;6.50;99.90
6666;DHT22;3369;49.906;8.598;2023-03-08T15:19:41;6.50;99.90
6666;DHT22;3369;49.906;8.598;2023-03-08T15:22:09;6.60;99.90
6666;DHT22;3369;49.906;8.598;2023-03-08T15:24:36;6.70;99.90
6666;DHT22;3369;49.906;8.598;2023-03-08T15:27:01;6.70;99.90
6666;DHT22;3369;49.906;8.598;2023-03-08T15:29:30;6.80;99.90
6666;DHT22;3369;49.906;8.598;2023-03-08T15:31:56;6.90;99.90
6666;DHT22;3369;49.906;8.598;2023-03-08T15:34:23;6.90;99.90
6666;DHT22;3369;49.906;8.598;2023-03-08T15:36:50;6.90;99.90
6666;DHT22;3369;49.906;8.598;2023-03-08T15:39:16;7.00;99.90
6666;DHT22;3369;49.906;8.598;2023-03-08T15:41:42;7.00;99.90
6666;DHT22;3369;49.906;8.598;2023-03-08T15:44:08;7.10;99.90
6666;DHT22;3369;49.906;8.598;2023-03-08T15:46:34;7.20;99.90
6666;DHT22;3369;49.906;8.598;2023-03-08T15:49:00;7.20;99.90
6666;DHT22;3369;49.906;8.598;2023-03-08T15:51:30;7.20;99.90
6666;DHT22;3369;49.906;8.598;2023-03-08T15:53:55;7.30;99.90
6666;DHT22;3369;49.906;8.598;2023-03-08T15:56:21;7.30;99.90
6666;DHT22;3369;49.906;8.598;2023-03-08T15:58:47;7.40;99.90
6666;DHT22;3369;49.906;8.598;2023-03-08T16:01:13;7.40;99.90
6666;DHT22;3369;49.906;8.598;2023-03-08T16:03:39;7.40;99.90
6666;DHT22;3369;49.906;8.598;2023-03-08T16:06:12;7.40;99.90
6666;DHT22;3369;49.906;8.598;2023-03-08T16:08:39;7.50;99.90
6666;DHT22;3369;49.906;8.598;2023-03-08T16:11:07;7.50;99.90
6666;DHT22;3369;49.906;8.598;2023-03-08T16:13:33;7.50;99.90
6666;DHT22;3369;49.906;8.598;2023-03-08T16:16:00;7.50;99.90
6666;DHT22;3369;49.906;8.598;2023-03-08T16:18:28;7.60;99.90
6666;DHT22;3369;49.906;8.598;2023-03-08T16:20:54;7.60;99.90
6666;DHT22;3369;49.906;8.598;2023-03-08T16:23:20;7.60;99.90
6666;DHT22;3369;49.906;8.598;2023-03-08T16:26:00;7.70;99.90
6666;DHT22;3369;49.906;8.598;2023-03-08T16:28:26;7.70;99.90
6666;DHT22;3369;49.906;8.598;2023-03-08T16:30:53;7.70;99.90
6666;DHT22;3369;49.906;8.598;2023-03-08T16:33:19;7.70;99.90
6666;DHT22;3369;49.906;8.598;2023-03-08T16:35:49;7.70;99.90
6666;DHT22;3369;49.906;8.598;2023-03-08T16:38:15;7.80;99.90
6666;DHT22;3369;49.906;8.598;2023-03-08T16:40:41;7.90;99.90
6666;DHT22;3369;49.906;8.598;2023-03-08T16:43:07;8.00;99.90
6666;DHT22;3369;49.906;8.598;2023-03-08T16:45:34;8.10;99.90
6666;DHT22;3369;49.906;8.598;2023-03-08T16:48:00;8.10;99.90
6666;DHT22;3369;49.906;8.598;2023-03-08T16:50:26;8.20;99.90
6666;DHT22;3369;49.906;8.598;2023-03-08T16:52:56;8.30;99.90
6666;DHT22;3369;49.906;8.598;2023-03-08T16:55:23;8.40;99.90
6666;DHT22;3369;49.906;8.598;2023-03-08T16:57:49;8.40;99.90
6666;DHT22;3369;49.906;8.598;2023-03-08T17:00:15;8.50;99.90
6666;DHT22;3369;49.906;8.598;2023-03-08T17:02:42;8.50;99.90
6666;DHT22;3369;49.906;8.598;2023-03-08T17:05:08;8.60;99.90
6666;DHT22;3369;49.906;8.598;2023-03-08T17:07:36;8.60;99.90
6666;DHT22;3369;49.906;8.598;2023-03-08T17:10:03;8.70;99.90
6666;DHT22;3369;49.906;8.598;2023-03-08T17:12:29;8.70;99.90
6666;DHT22;3369;49.906;8.598;2023-03-08T17:14:55;8.70;99.90
6666;DHT22;3369;49.906;8.598;2023-03-08T17:17:21;8.80;99.90
6666;DHT22;3369;49.906;8.598;2023-03-08T17:19:50;8.80;99.90
6666;DHT22;3369;49.906;8.598;2023-03-08T17:22:16;8.80;99.90
6666;DHT22;3369;49.906;8.598;2023-03-08T17:24:42;8.80;99.90
6666;DHT22;3369;49.906;8.598;2023-03-08T17:27:07;8.80;99.90
6666;DHT22;3369;49.906;8.598;2023-03-08T17:29:34;8.90;99.90
6666;DHT22;3369;49.906;8.598;2023-03-08T17:31:59;8.90;99.90
6666;DHT22;3369;49.906;8.598;2023-03-08T17:34:25;8.90;99.90
6666;DHT22;3369;49.906;8.598;2023-03-08T17:36:51;8.90;99.90
6666;DHT22;3369;49.906;8.598;2023-03-08T17:39:18;8.90;99.90
6666;DHT22;3369;49.906;8.598;2023-03-08T17:41:44;8.80;99.90
6666;DHT22;3369;49.906;8.598;2023-03-08T17:44:11;8.80;99.90
6666;DHT22;3369;49.906;8.598;2023-03-08T17:46:37;8.80;99.90
6666;DHT22;3369;49.906;8.598;2023-03-08T17:49:03;8.80;99.90
6666;DHT22;3369;49.906;8.598;2023-03-08T17:51:38;8.70;99.90
6666;DHT22;3369;49.906;8.598;2023-03-08T17:54:04;8.70;99.90
6666;DHT22;3369;49.906;8.598;2023-03-08T17:56:31;8.70;99.90
6666;DHT22;3369;49.906;8.598;2023-03-08T17:58:59;8.60;99.90
6666;DHT22;3369;49.906;8.598;2023-03-08T18:01:29;8.60;99.90
6666;DHT22;3369;49.906;8.598;2023-03-08T18:04:06;8.60;99.90
6666;DHT22;3369;49.906;8.598;2023-03-08T18:06:37;8.50;99.90
6666;DHT22;3369;49.906;8.598;2023-03-08T18:09:06;8.30;99.90
6666;DHT22;3369;49.906;8.598;2023-03-08T18:11:32;8.00;99.90
6666;DHT22;3369;49.906;8.598;2023-03-08T18:14:07;7.80;99.90
6666;DHT22;3369;49.906;8.598;2023-03-08T18:16:33;7.50;99.90
6666;DHT22;3369;49.906;8.598;2023-03-08T18:19:00;7.30;99.90
6666;DHT22;3369;49.906;8.598;2023-03-08T18:21:29;7.20;99.90
6666;DHT22;3369;49.906;8.598;2023-03-08T18:23:56;7.10;99.90
6666;DHT22;3369;49.906;8.598;2023-03-08T18:26:23;7.00;99.90
6666;DHT22;3369;49.906;8.598;2023-03-08T18:28:49;6.90;99.90
6666;DHT22;3369;49.906;8.598;2023-03-08T18:31:20;6.80;99.90
6666;DHT22;3369;49.906;8.598;2023-03-08T18:33:48;6.70;99.90
6666;DHT22;3369;49.906;8.598;2023-03-08T18:36:15;6.60;99.90
6666;DHT22;3369;49.906;8.598;2023-03-08T18:38:41;6.60;99.90
6666;DHT22;3369;49.906;8.598;2023-03-08T18:43:40;6.60;99.90
6666;DHT22;3369;49.906;8.598;2023-03-08T18:46:06;6.60;99.90
6666;DHT22;3369;49.906;8.598;2023-03-08T18:48:35;6.60;99.90
6666;DHT22;3369;49.906;8.598;2023-03-08T18:51:01;6.60;99.90
6666;DHT22;3369;49.906;8.598;2023-03-08T18:53:27;6.60;99.90
6666;DHT22;3369;49.906;8.598;2023-03-08T18:55:58;6.60;99.90
6666;DHT22;3369;49.906;8.598;2023-03-08T18:58:25;6.60;99.90
6666;DHT22;3369;49.906;8.598;2023-03-08T19:00:55;6.60;99.90
6666;DHT22;3369;49.906;8.598;2023-03-08T19:03:24;6.60;99.90
6666;DHT22;3369;49.906;8.598;2023-03-08T19:05:50;6.60;99.90
6666;DHT22;3369;49.906;8.598;2023-03-08T19:31:59;7.00;99.90
6666;DHT22;3369;49.906;8.598;2023-03-08T19:34:27;7.10;99.90
6666;DHT22;3369;49.906;8.598;2023-03-08T19:36:54;7.10;99.90
6666;DHT22;3369;49.906;8.598;2023-03-08T19:39:31;7.20;99.90
6666;DHT22;3369;49.906;8.598;2023-03-08T19:42:03;7.20;99.90
6666;DHT22;3369;49.906;8.598;2023-03-08T19:44:29;7.30;99.90
6666;DHT22;3369;49.906;8.598;2023-03-08T19:46:56;7.30;99.90
6666;DHT22;3369;49.906;8.598;2023-03-08T19:49:24;7.30;99.90
6666;DHT22;3369;49.906;8.598;2023-03-08T19:51:52;7.30;99.90
6666;DHT22;3369;49.906;8.598;2023-03-08T19:54:19;7.40;99.90
6666;DHT22;3369;49.906;8.598;2023-03-08T19:56:48;7.40;99.90
6666;DHT22;3369;49.906;8.598;2023-03-08T19:59:15;7.50;99.90
6666;DHT22;3369;49.906;8.598;2023-03-08T20:01:41;7.50;99.90
6666;DHT22;3369;49.906;8.598;2023-03-08T20:04:08;7.50;99.90
6666;DHT22;3369;49.906;8.598;2023-03-08T20:06:40;7.50;99.90
6666;DHT22;3369;49.906;8.598;2023-03-08T20:09:16;7.50;99.90
6666;DHT22;3369;49.906;8.598;2023-03-08T20:11:49;7.60;99.90